Garden City, Virginia
Current Conditions -  °F | °C
As of 5:54 AM on Saturday 22 Nov 2014 (Local Time) from KROA Reporting Station
Clear Clear  
Wind Chill: 21°   Ceiling: Unl
Heat Index: 21°   Visibility: 10mi
Dew Point: 13°   Wind: 0mph
Humidity: 71%   Direction: NA
Pressure: 30.51"   Gusts: NA
Location:  37.224°N, 79.9199°W
Report Text: KROA 221054Z 00000KT 10SM CLR M06/M11 A3051 RMK AO2 SLP346 T10611106
Loading
Personal Weather Stations






























Interactive Weather Map New forecast layout! Learn more

10-Day Weather Forecast

Advertisements
Track Severe Weather on mobile